createdAt,value
2022-09-05T00:02:02.415Z,20.34
2022-09-05T00:05:06.998Z,20.30
2022-09-05T00:08:08.322Z,20.37
2022-09-05T00:11:42.766Z,20.39
2022-09-05T00:15:14.673Z,20.44
2022-09-05T00:21:10.453Z,20.40
2022-09-05T00:24:37.609Z,20.40
2022-09-05T00:25:31.345Z,20.14
2022-09-05T00:28:42.510Z,20.20
2022-09-05T00:31:54.561Z,20.26
2022-09-05T00:35:08.722Z,20.25
2022-09-05T00:37:54.967Z,20.12
2022-09-05T00:41:02.453Z,20.20
2022-09-05T00:43:50.059Z,20.27
2022-09-05T00:46:39.105Z,20.31
2022-09-05T00:49:28.133Z,20.34
2022-09-05T00:52:37.117Z,20.13
2022-09-05T00:55:44.960Z,20.36
2022-09-05T00:58:56.470Z,20.28
2022-09-05T01:01:59.138Z,20.32
2022-09-05T01:05:24.686Z,20.35
2022-09-05T01:08:39.602Z,20.35
2022-09-05T01:11:57.998Z,20.37
2022-09-05T01:15:17.882Z,20.37
2022-09-05T01:18:19.553Z,20.28
2022-09-05T01:21:36.402Z,20.42
2022-09-05T01:24:42.841Z,20.41
2022-09-05T01:29:16.145Z,20.40
2022-09-05T01:32:06.213Z,20.39
2022-09-05T01:34:55.580Z,20.42
2022-09-05T01:37:49.202Z,20.40
2022-09-05T01:40:41.551Z,20.56
2022-09-05T01:43:52.383Z,20.59
2022-09-05T01:46:50.665Z,20.55
2022-09-05T01:50:01.128Z,20.54
2022-09-05T01:53:07.136Z,20.59
2022-09-05T01:56:30.464Z,20.58
2022-09-05T01:59:19.814Z,20.48
2022-09-05T02:02:13.750Z,20.59
2022-09-05T02:05:12.514Z,20.63
2022-09-05T02:08:36.259Z,20.62
2022-09-05T02:11:42.087Z,20.45
2022-09-05T02:15:01.048Z,20.55
2022-09-05T02:17:54.349Z,20.37
2022-09-05T02:20:54.856Z,20.29
2022-09-05T02:23:49.128Z,20.19
2022-09-05T02:26:57.617Z,19.85
2022-09-05T02:30:10.173Z,20.03
2022-09-05T02:32:56.369Z,20.01
2022-09-05T02:35:54.272Z,20.23
2022-09-05T02:45:02.888Z,20.08
2022-09-05T02:45:15.181Z,20.10
2022-09-05T02:45:58.882Z,20.19
2022-09-05T02:48:57.829Z,20.10
2022-09-05T02:57:24.635Z,20.20
2022-09-05T02:57:41.149Z,20.07
2022-09-05T02:59:09.541Z,20.18
2022-09-05T03:02:27.006Z,20.23
2022-09-05T03:05:31.314Z,20.29
2022-09-05T03:08:42.204Z,20.30
2022-09-05T03:11:37.674Z,20.33
2022-09-05T03:14:48.356Z,20.28
2022-09-05T03:17:40.273Z,20.36
2022-09-05T03:20:51.453Z,20.33
2022-09-05T03:23:46.628Z,20.33
2022-09-05T03:26:38.385Z,20.38
2022-09-05T03:29:31.328Z,20.38
2022-09-05T03:32:43.047Z,20.35
2022-09-05T03:36:08.925Z,20.30
2022-09-05T03:39:36.888Z,20.29
2022-09-05T03:42:55.788Z,20.36
2022-09-05T03:46:06.979Z,20.28
2022-09-05T03:49:58.070Z,20.25
2022-09-05T03:57:11.772Z,20.37
2022-09-05T03:57:18.175Z,20.35
2022-09-05T03:58:57.966Z,20.39
2022-09-05T04:05:01.002Z,20.30
2022-09-05T04:08:19.740Z,20.27
2022-09-05T04:08:41.926Z,20.35
2022-09-05T04:11:53.736Z,20.18
2022-09-05T04:14:54.960Z,20.34
2022-09-05T04:17:41.082Z,20.30
2022-09-05T04:20:55.186Z,20.22
2022-09-05T04:23:49.909Z,20.31
2022-09-05T04:26:44.968Z,20.33
2022-09-05T04:29:37.018Z,20.34
2022-09-05T04:32:41.585Z,20.24
2022-09-05T04:35:53.935Z,20.32
2022-09-05T04:38:44.044Z,20.25
2022-09-05T04:41:39.609Z,20.30
2022-09-05T04:44:30.044Z,20.21
2022-09-05T04:47:29.242Z,20.04
2022-09-05T04:50:18.704Z,20.11
2022-09-05T04:53:21.988Z,20.12
2022-09-05T04:56:13.960Z,20.21
2022-09-05T05:02:31.473Z,20.18
2022-09-05T05:06:15.110Z,20.25
2022-09-05T05:06:20.302Z,20.23
2022-09-05T05:09:34.874Z,20.22
2022-09-05T05:18:03.805Z,20.21
2022-09-05T05:18:11.488Z,20.20
2022-09-05T05:19:03.622Z,20.23
2022-09-05T05:21:57.360Z,20.24
2022-09-05T05:24:46.582Z,19.93
2022-09-05T05:27:42.104Z,19.97
2022-09-05T05:30:32.501Z,20.24
2022-09-05T05:33:30.241Z,20.16
2022-09-05T05:36:28.495Z,20.20
2022-09-05T05:39:21.298Z,20.24
2022-09-05T05:42:20.531Z,20.15
2022-09-05T05:45:17.223Z,20.19
2022-09-05T05:48:21.856Z,20.25
2022-09-05T05:52:01.724Z,20.28
2022-09-05T05:55:28.511Z,20.21
2022-09-05T05:58:41.508Z,20.28
2022-09-05T06:01:38.450Z,20.37
2022-09-05T06:04:49.577Z,20.41
2022-09-05T06:08:10.227Z,20.45
2022-09-05T06:15:00.723Z,20.49
2022-09-05T06:15:08.880Z,20.52
2022-09-05T06:18:24.370Z,20.58
2022-09-05T06:22:07.252Z,20.73
2022-09-05T06:24:47.440Z,20.66
2022-09-05T06:28:05.569Z,20.82
2022-09-05T06:31:30.798Z,20.73
2022-09-05T06:34:46.948Z,20.89
2022-09-05T06:38:11.821Z,20.87
2022-09-05T06:41:20.446Z,21.06
2022-09-05T06:44:37.307Z,20.86
2022-09-05T06:47:33.451Z,21.08
2022-09-05T06:50:26.964Z,21.11
2022-09-05T06:53:38.823Z,21.18
2022-09-05T06:56:46.522Z,21.18
2022-09-05T06:59:44.852Z,21.27
2022-09-05T07:02:59.065Z,21.34
2022-09-05T07:06:04.686Z,21.45
2022-09-05T07:09:15.941Z,21.32
2022-09-05T07:12:16.052Z,21.48
2022-09-05T07:15:13.842Z,21.40
2022-09-05T07:18:31.737Z,21.49
2022-09-05T07:21:35.673Z,21.57
2022-09-05T07:24:53.839Z,21.63
2022-09-05T07:27:58.752Z,21.53
2022-09-05T07:30:47.485Z,21.66
2022-09-05T07:36:28.070Z,21.53
2022-09-05T07:39:28.652Z,21.36
2022-09-05T07:42:19.783Z,21.75
2022-09-05T07:45:10.826Z,21.80
2022-09-05T07:48:08.697Z,21.82
2022-09-05T07:56:53.145Z,21.83
2022-09-05T07:56:53.914Z,21.83
2022-09-05T07:57:52.053Z,21.87
2022-09-05T08:00:39.052Z,21.90
2022-09-05T08:03:27.667Z,21.91
2022-09-05T08:07:14.379Z,21.71
2022-09-05T08:10:06.158Z,21.89
2022-09-05T08:13:22.906Z,22.17
2022-09-05T08:16:09.867Z,22.04
2022-09-05T08:19:18.698Z,21.93
2022-09-05T08:22:07.025Z,21.98
2022-09-05T08:25:13.590Z,22.02
2022-09-05T08:28:19.502Z,22.09
2022-09-05T08:31:11.296Z,22.15
2022-09-05T08:34:00.366Z,22.18
2022-09-05T08:36:50.010Z,22.24
2022-09-05T08:39:36.464Z,22.16
2022-09-05T08:42:25.674Z,22.30
2022-09-05T08:46:44.300Z,22.28
2022-09-05T08:49:11.559Z,22.35
2022-09-05T08:52:30.649Z,22.20
2022-09-05T08:55:45.936Z,22.22
2022-09-05T08:58:37.744Z,21.64
2022-09-05T09:01:26.768Z,22.04
2022-09-05T09:05:00.935Z,22.11
2022-09-05T09:07:51.119Z,22.34
2022-09-05T09:10:55.014Z,22.38
2022-09-05T09:14:07.133Z,22.32
2022-09-05T09:17:08.193Z,22.06
2022-09-05T09:20:09.731Z,22.15
2022-09-05T09:22:59.825Z,22.38
2022-09-05T09:25:58.714Z,22.53
2022-09-05T09:29:12.504Z,22.60
2022-09-05T09:32:11.731Z,22.77
2022-09-05T09:35:06.200Z,22.86
2022-09-05T09:38:11.093Z,22.71
2022-09-05T09:41:29.056Z,22.74
2022-09-05T09:45:22.583Z,22.96
2022-09-05T09:48:14.451Z,23.12
2022-09-05T09:51:18.794Z,23.23
2022-09-05T09:54:28.198Z,23.22
2022-09-05T09:57:33.263Z,23.32
2022-09-05T10:00:21.431Z,23.30
2022-09-05T10:07:47.917Z,23.34
2022-09-05T10:10:49.902Z,23.57
2022-09-05T10:10:58.386Z,23.45
2022-09-05T10:13:38.708Z,23.60
2022-09-05T10:16:43.431Z,23.74
2022-09-05T10:20:11.861Z,23.75
2022-09-05T10:23:16.620Z,23.87
2022-09-05T10:26:20.894Z,23.97
2022-09-05T10:29:36.845Z,24.05
2022-09-05T10:35:04.766Z,24.00
2022-09-05T10:36:17.394Z,23.93
2022-09-05T10:39:17.892Z,23.92
2022-09-05T10:42:03.800Z,24.22
2022-09-05T10:44:54.150Z,24.13
2022-09-05T10:48:12.961Z,24.08
2022-09-05T10:51:27.816Z,24.14
2022-09-05T10:54:21.126Z,24.31
2022-09-05T10:57:35.678Z,24.20
2022-09-05T11:02:28.291Z,24.31
2022-09-05T11:04:22.668Z,24.46
2022-09-05T11:07:15.637Z,24.40
2022-09-05T11:10:07.006Z,24.46
2022-09-05T11:13:16.280Z,24.61
2022-09-05T11:16:19.452Z,24.62
2022-09-05T11:19:35.038Z,24.47
2022-09-05T11:22:24.424Z,24.47
2022-09-05T11:25:21.172Z,24.23
2022-09-05T11:28:58.154Z,24.60
2022-09-05T11:34:18.218Z,24.45
2022-09-05T11:39:52.354Z,24.61
2022-09-05T11:40:04.006Z,24.75
2022-09-05T11:42:25.240Z,24.76
2022-09-05T11:45:37.318Z,24.87
2022-09-05T11:48:53.616Z,24.64
2022-09-05T11:52:01.349Z,24.78
2022-09-05T11:55:09.392Z,24.72
2022-09-05T11:58:45.334Z,24.62
2022-09-05T12:01:50.688Z,24.73
2022-09-05T12:05:47.327Z,24.85
2022-09-05T12:08:10.001Z,24.81
2022-09-05T12:11:10.602Z,24.86
2022-09-05T12:14:27.340Z,24.92
2022-09-05T12:17:58.430Z,25.02
2022-09-05T12:21:00.163Z,25.12
2022-09-05T12:24:00.033Z,25.18
2022-09-05T12:27:44.957Z,25.08
2022-09-05T12:30:23.113Z,25.14
2022-09-05T12:36:01.579Z,25.39
2022-09-05T12:40:53.800Z,25.17
2022-09-05T12:41:35.535Z,25.15
2022-09-05T12:43:57.452Z,25.40
2022-09-05T12:46:45.804Z,25.64
2022-09-05T12:49:37.197Z,25.66
2022-09-05T12:52:37.053Z,25.74
2022-09-05T12:55:28.106Z,25.52
2022-09-05T13:02:56.219Z,25.77
2022-09-05T13:03:05.820Z,25.95
2022-09-05T13:04:59.687Z,25.92
2022-09-05T13:07:52.888Z,25.95
2022-09-05T13:14:46.185Z,26.13
2022-09-05T13:15:06.136Z,26.14
2022-09-05T13:17:02.415Z,26.15
2022-09-05T13:19:51.781Z,26.34
2022-09-05T13:22:48.646Z,26.24
2022-09-05T13:25:36.193Z,26.35
2022-09-05T13:28:25.226Z,26.22
2022-09-05T13:37:55.740Z,26.36
2022-09-05T13:38:12.700Z,26.30
2022-09-05T13:38:20.929Z,26.37
2022-09-05T13:40:44.367Z,26.40
2022-09-05T13:43:37.429Z,26.54
2022-09-05T13:47:10.575Z,26.54
2022-09-05T13:50:23.205Z,26.53
2022-09-05T13:53:43.969Z,26.55
2022-09-05T13:56:33.037Z,26.60
2022-09-05T13:59:20.902Z,26.60
2022-09-05T14:02:27.673Z,26.62
2022-09-05T14:05:35.884Z,26.59
2022-09-05T14:09:35.045Z,26.55
2022-09-05T14:12:08.308Z,26.54
2022-09-05T14:15:13.768Z,26.48
2022-09-05T14:18:21.462Z,26.41
2022-09-05T14:21:15.856Z,26.33
2022-09-05T14:24:21.966Z,26.36
2022-09-05T14:27:18.674Z,26.53
2022-09-05T14:35:23.467Z,26.67
2022-09-05T14:37:51.085Z,26.93
2022-09-05T14:38:05.798Z,27.04
2022-09-05T14:41:15.497Z,27.19
2022-09-05T14:44:41.581Z,27.19
2022-09-05T14:47:54.018Z,27.30
2022-09-05T14:50:49.486Z,27.42
2022-09-05T14:54:01.847Z,27.45
2022-09-05T14:59:43.421Z,27.49
2022-09-05T15:02:45.892Z,27.94
2022-09-05T15:03:09.130Z,28.15
2022-09-05T15:05:55.911Z,28.25
2022-09-05T15:11:24.362Z,28.44
2022-09-05T15:12:26.282Z,28.53
2022-09-05T15:15:18.234Z,28.59
2022-09-05T15:18:08.313Z,28.75
2022-09-05T15:21:33.166Z,28.81
2022-09-05T15:27:32.191Z,28.70
2022-09-05T15:30:27.565Z,28.99
2022-09-05T15:33:25.728Z,29.06
2022-09-05T15:36:14.615Z,29.30
2022-09-05T15:39:20.427Z,29.20
2022-09-05T15:42:21.562Z,29.13
2022-09-05T15:45:11.888Z,29.22
2022-09-05T15:48:16.766Z,29.18
2022-09-05T15:51:17.138Z,29.12
2022-09-05T15:54:06.331Z,29.13
2022-09-05T15:56:59.596Z,29.13
2022-09-05T15:59:49.916Z,28.96
2022-09-05T16:03:01.007Z,28.88
2022-09-05T16:10:37.466Z,28.74
2022-09-05T16:10:42.034Z,28.86
2022-09-05T16:12:46.589Z,28.81
2022-09-05T16:19:30.768Z,28.76
2022-09-05T16:23:23.496Z,28.64
2022-09-05T16:23:23.496Z,28.73
2022-09-05T16:25:22.727Z,28.26
2022-09-05T16:28:14.722Z,28.35
2022-09-05T16:31:29.901Z,28.27
2022-09-05T16:34:54.664Z,28.15
2022-09-05T16:38:09.073Z,28.02
2022-09-05T16:41:02.079Z,27.89
2022-09-05T16:43:57.464Z,27.79
2022-09-05T16:47:23.196Z,27.64
2022-09-05T16:50:16.735Z,27.58
2022-09-05T16:53:09.949Z,27.46
2022-09-05T16:56:16.468Z,27.26
2022-09-05T16:59:08.318Z,27.15
2022-09-05T17:02:27.498Z,27.08
2022-09-05T17:05:19.675Z,27.01
2022-09-05T17:08:20.905Z,26.89
2022-09-05T17:11:13.750Z,26.76
2022-09-05T17:14:20.430Z,26.68
2022-09-05T17:17:35.983Z,26.58
2022-09-05T17:20:22.117Z,26.47
2022-09-05T17:29:18.294Z,26.36
2022-09-05T17:29:32.179Z,26.25
2022-09-05T17:32:59.743Z,26.09
2022-09-05T17:35:48.491Z,25.98
2022-09-05T17:39:23.037Z,25.91
2022-09-05T17:42:41.328Z,25.84
2022-09-05T17:46:09.698Z,25.67
2022-09-05T17:49:17.989Z,25.18
2022-09-05T17:52:04.237Z,23.39
2022-09-05T17:54:52.565Z,23.66
2022-09-05T17:57:40.025Z,24.28
2022-09-05T18:00:48.832Z,24.23
2022-09-05T18:03:38.611Z,24.39
2022-09-05T18:06:32.849Z,24.42
2022-09-05T18:13:32.293Z,24.40
2022-09-05T18:16:42.054Z,24.34
2022-09-05T18:19:41.984Z,24.38
2022-09-05T18:22:38.640Z,24.22
2022-09-05T18:28:49.281Z,24.28
2022-09-05T18:31:41.303Z,24.22
2022-09-05T18:34:32.065Z,24.12
2022-09-05T18:37:36.965Z,24.01
2022-09-05T18:40:47.940Z,23.89
2022-09-05T18:44:12.448Z,23.86
2022-09-05T18:46:57.525Z,23.86
2022-09-05T18:50:25.014Z,23.79
2022-09-05T18:53:09.107Z,23.77
2022-09-05T18:56:13.363Z,23.71
2022-09-05T18:59:18.220Z,23.52
2022-09-05T19:02:28.714Z,23.47
2022-09-05T19:05:38.442Z,23.55
2022-09-05T19:08:31.863Z,23.55
2022-09-05T19:11:29.150Z,23.40
2022-09-05T19:14:50.256Z,23.40
2022-09-05T19:17:40.255Z,23.44
2022-09-05T19:21:11.947Z,23.36
2022-09-05T19:24:02.999Z,23.29
2022-09-05T19:26:56.869Z,23.31
2022-09-05T19:36:46.281Z,23.23
2022-09-05T19:37:09.603Z,23.11
2022-09-05T19:37:14.276Z,23.18
2022-09-05T19:41:24.353Z,23.14
2022-09-05T19:47:28.004Z,23.05
2022-09-05T19:47:37.698Z,22.98
2022-09-05T19:49:13.646Z,22.78
2022-09-05T19:52:15.269Z,22.78
2022-09-05T19:55:02.509Z,22.79
2022-09-05T19:58:29.186Z,22.86
2022-09-05T20:01:04.590Z,22.76
2022-09-05T20:03:53.508Z,22.67
2022-09-05T20:06:41.954Z,22.72
2022-09-05T20:09:28.343Z,22.70
2022-09-05T20:12:24.486Z,22.68
2022-09-05T20:15:36.124Z,22.61
2022-09-05T20:18:28.295Z,22.50
2022-09-05T20:21:26.165Z,22.38
2022-09-05T20:24:12.695Z,22.46
2022-09-05T20:27:00.154Z,22.42
2022-09-05T20:30:00.410Z,22.35
2022-09-05T20:32:52.547Z,22.34
2022-09-05T20:37:51.629Z,22.28
2022-09-05T20:43:18.296Z,22.17
2022-09-05T20:43:23.235Z,22.24
2022-09-05T20:45:07.957Z,22.17
2022-09-05T20:52:34.921Z,22.13
2022-09-05T20:54:22.574Z,22.02
2022-09-05T20:54:32.276Z,21.97
2022-09-05T20:57:18.152Z,21.94
2022-09-05T21:00:20.185Z,21.84
2022-09-05T21:03:09.041Z,21.78
2022-09-05T21:05:55.881Z,21.75
2022-09-05T21:08:42.389Z,21.67
2022-09-05T21:11:30.836Z,21.69
2022-09-05T21:14:23.067Z,21.60
2022-09-05T21:17:15.590Z,21.57
2022-09-05T21:20:08.707Z,21.45
2022-09-05T21:22:54.898Z,21.46
2022-09-05T21:26:00.319Z,21.37
2022-09-05T21:29:09.109Z,21.27
2022-09-05T21:32:00.006Z,21.34
2022-09-05T21:34:52.160Z,21.31
2022-09-05T21:37:41.253Z,21.28
2022-09-05T21:40:27.660Z,21.18
2022-09-05T21:47:12.898Z,21.14
2022-09-05T21:47:38.390Z,21.18
2022-09-05T21:49:26.679Z,21.05
2022-09-05T21:52:13.147Z,21.06
2022-09-05T21:59:15.336Z,21.11
2022-09-05T21:59:25.915Z,21.03
2022-09-05T22:01:13.676Z,20.92
2022-09-05T22:03:59.762Z,20.97
2022-09-05T22:06:48.520Z,20.98
2022-09-05T22:09:34.713Z,20.81
2022-09-05T22:12:30.680Z,20.87
2022-09-05T22:15:27.839Z,20.83
2022-09-05T22:18:17.787Z,20.79
2022-09-05T22:21:33.406Z,20.81
2022-09-05T22:24:13.266Z,20.75
2022-09-05T22:27:12.626Z,20.75
2022-09-05T22:29:59.232Z,20.61
2022-09-05T22:32:45.192Z,20.66
2022-09-05T22:35:35.370Z,20.66
2022-09-05T22:38:21.662Z,20.57
2022-09-05T22:41:07.798Z,20.54
2022-09-05T22:43:53.797Z,20.59
2022-09-05T22:46:39.839Z,20.54
2022-09-05T22:49:25.848Z,20.56
2022-09-05T22:52:11.687Z,20.56
2022-09-05T22:54:57.862Z,20.46
2022-09-05T22:57:43.774Z,20.49
2022-09-05T23:00:29.954Z,20.54
2022-09-05T23:03:16.459Z,20.48
2022-09-05T23:06:09.232Z,20.49
2022-09-05T23:08:55.063Z,20.42
2022-09-05T23:11:40.916Z,20.50
2022-09-05T23:14:26.907Z,20.54
2022-09-05T23:17:16.069Z,20.50
2022-09-05T23:20:02.705Z,20.46
2022-09-05T23:22:48.700Z,20.49
2022-09-05T23:25:35.812Z,20.41
2022-09-05T23:28:21.959Z,20.43
2022-09-05T23:31:09.206Z,20.34
2022-09-05T23:33:58.105Z,20.42
2022-09-05T23:36:44.168Z,20.39
2022-09-05T23:39:30.175Z,20.41
2022-09-05T23:42:16.355Z,20.38
2022-09-05T23:45:02.259Z,20.41
2022-09-05T23:47:48.383Z,20.40
2022-09-05T23:50:34.466Z,20.37
2022-09-05T23:53:20.454Z,20.35
2022-09-05T23:56:08.363Z,20.39
2022-09-05T23:58:54.403Z,20.31
